Time;durP1;ratioP1;P1;durP2;ratioP2;P2;SDS_P1;SDS_P2;PMS_P1;PMS_P2;Temp;Humidity;BMP_temperature;BMP_pressure;BME280_temperature;BME280_humidity;BME280_pressure;Samples;Min_cycle;Max_cycle;Signal;HPM_P1;HPM_P2
2023/01/27 00:00:10;;;;;;;21.30;12.40;;;-0.80;99.90;;;;;;5053636;28;20226;-79
2023/01/27 00:02:36;;;;;;;24.75;13.32;;;-0.80;99.90;;;;;;5060070;28;20607;-80
2023/01/27 00:05:02;;;;;;;19.95;12.23;;;-0.80;99.90;;;;;;5055848;28;20278;-78
2023/01/27 00:07:27;;;;;;;26.13;14.10;;;-0.90;99.90;;;;;;5057192;28;20266;-78
2023/01/27 00:09:53;;;;;;;22.80;13.20;;;-0.90;99.90;;;;;;5039989;28;20187;-78
2023/01/27 00:15:07;;;;;;;23.02;13.27;;;-0.90;99.90;;;;;;5058878;28;20210;-79
2023/01/27 00:17:33;;;;;;;22.05;13.40;;;-0.90;99.90;;;;;;5058431;28;20175;-78
2023/01/27 00:19:59;;;;;;;19.10;11.57;;;-0.90;99.90;;;;;;5059733;28;20724;-78
2023/01/27 00:25:09;;;;;;;20.20;12.80;;;-0.70;99.90;;;;;;5057433;28;20691;-78
2023/01/27 00:27:35;;;;;;;21.17;11.80;;;-0.90;99.90;;;;;;5058800;28;20184;-77
2023/01/27 00:30:03;;;;;;;25.10;13.60;;;-1.00;99.90;;;;;;5056523;28;20230;-78
2023/01/27 00:35:15;;;;;;;24.02;13.43;;;-0.90;99.90;;;;;;5058223;28;20222;-77
2023/01/27 00:37:41;;;;;;;20.30;12.50;;;-0.90;99.90;;;;;;5058195;28;20172;-77
2023/01/27 00:40:08;;;;;;;29.75;14.25;;;-0.90;99.90;;;;;;5055129;28;20184;-78
2023/01/27 00:42:34;;;;;;;26.77;14.52;;;-0.90;99.90;;;;;;5038472;28;20215;-78
2023/01/27 00:47:43;;;;;;;22.70;13.10;;;-0.90;99.90;;;;;;5056259;28;20497;-78
2023/01/27 00:50:09;;;;;;;25.10;15.30;;;-1.00;99.90;;;;;;5053825;28;20630;-78
2023/01/27 00:52:35;;;;;;;28.73;13.68;;;-0.90;99.90;;;;;;5053808;28;20204;-80
2023/01/27 00:55:00;;;;;;;24.53;14.63;;;-0.90;99.90;;;;;;5055439;28;20211;-78
2023/01/27 00:57:26;;;;;;;25.57;13.63;;;-1.00;99.90;;;;;;5035481;28;20184;-78
2023/01/27 00:59:52;;;;;;;27.43;15.13;;;-0.90;99.90;;;;;;5053331;28;20199;-77
2023/01/27 01:02:17;;;;;;;21.70;13.37;;;-0.90;99.90;;;;;;5053538;28;20210;-78
2023/01/27 01:04:43;;;;;;;22.23;13.40;;;-0.90;99.90;;;;;;5052613;28;20184;-79
2023/01/27 01:07:08;;;;;;;21.13;12.57;;;-0.90;99.90;;;;;;5036194;28;20314;-80
2023/01/27 01:09:34;;;;;;;27.33;14.90;;;-0.90;99.90;;;;;;5053498;28;20874;-80
2023/01/27 01:12:00;;;;;;;23.50;14.13;;;-0.90;99.90;;;;;;5035372;28;20295;-79
2023/01/27 01:14:25;;;;;;;24.10;13.57;;;-0.90;99.90;;;;;;5051054;28;20184;-79
2023/01/27 01:16:51;;;;;;;21.10;12.90;;;-0.90;99.90;;;;;;5051016;28;20241;-78
2023/01/27 01:19:16;;;;;;;26.20;14.17;;;-0.90;99.90;;;;;;5034325;28;20179;-77
2023/01/27 01:21:42;;;;;;;22.77;14.27;;;-0.90;99.90;;;;;;5050493;28;20557;-78
2023/01/27 01:24:08;;;;;;;25.00;13.63;;;-0.90;99.90;;;;;;5050916;28;20275;-77
2023/01/27 01:26:33;;;;;;;22.77;14.17;;;-0.90;99.90;;;;;;5050882;28;20664;-78
2023/01/27 01:28:59;;;;;;;24.53;14.07;;;-0.90;99.90;;;;;;5034811;28;20239;-78
2023/01/27 01:31:24;;;;;;;26.80;13.67;;;-0.90;99.90;;;;;;5034289;28;20203;-78
2023/01/27 01:33:50;;;;;;;29.40;13.80;;;-0.90;99.90;;;;;;5034238;28;20227;-77
2023/01/27 01:36:19;;;;;;;20.23;13.70;;;-0.90;99.90;;;;;;5050564;28;20951;-77
2023/01/27 01:38:45;;;;;;;24.30;14.10;;;-0.90;99.90;;;;;;5051397;28;20184;-77
2023/01/27 01:41:15;;;;;;;22.92;13.20;;;-0.90;99.90;;;;;;5051883;28;20207;-77
2023/01/27 01:43:41;;;;;;;28.40;14.75;;;-0.90;99.90;;;;;;5050491;28;20660;-77
2023/01/27 01:46:09;;;;;;;26.93;15.07;;;-0.90;99.90;;;;;;5050917;28;20234;-78
2023/01/27 01:48:51;;;;;;;23.67;13.18;;;-0.90;99.90;;;;;;5033602;28;20941;-76
2023/01/27 01:51:25;;;;;;;22.88;13.48;;;-0.90;99.90;;;;;;5049553;28;20215;-79
2023/01/27 01:53:54;;;;;;;22.45;14.50;;;-0.90;99.90;;;;;;5051768;28;20187;-77
2023/01/27 01:56:25;;;;;;;23.42;14.18;;;-0.90;99.90;;;;;;5051135;28;20214;-78
2023/01/27 01:58:53;;;;;;;29.95;15.20;;;-0.90;99.90;;;;;;5051356;28;20313;-78
2023/01/27 02:01:19;;;;;;;21.08;12.73;;;-0.90;99.90;;;;;;5032811;28;20277;-78
2023/01/27 02:03:51;;;;;;;25.08;13.90;;;-1.00;99.90;;;;;;5050049;28;20300;-79
2023/01/27 02:06:18;;;;;;;25.27;13.88;;;-0.90;99.90;;;;;;5051264;28;20321;-77
2023/01/27 02:08:46;;;;;;;26.35;15.13;;;-0.90;99.90;;;;;;5049887;28;20179;-77
2023/01/27 02:11:12;;;;;;;23.63;13.63;;;-0.90;99.90;;;;;;5050898;28;20756;-77
2023/01/27 02:13:38;;;;;;;25.63;13.30;;;-0.90;99.90;;;;;;5049913;28;20270;-77
2023/01/27 02:16:05;;;;;;;26.00;13.27;;;-0.90;99.90;;;;;;5049303;28;20207;-77
2023/01/27 02:18:31;;;;;;;25.15;14.45;;;-0.90;99.90;;;;;;5050366;28;20223;-76
2023/01/27 02:20:57;;;;;;;25.60;14.20;;;-0.90;99.90;;;;;;5050767;28;20180;-76
2023/01/27 02:23:30;;;;;;;25.95;14.38;;;-0.90;99.90;;;;;;5051180;28;20238;-79
2023/01/27 02:26:16;;;;;;;27.02;14.70;;;-0.90;99.90;;;;;;5049644;28;20199;-79
2023/01/27 02:28:41;;;;;;;24.80;13.85;;;-0.90;99.90;;;;;;5051884;28;20172;-80
2023/01/27 02:31:07;;;;;;;24.60;13.83;;;-0.90;99.90;;;;;;5052129;28;20217;-79
2023/01/27 02:33:32;;;;;;;19.07;12.20;;;-0.90;99.90;;;;;;5052259;28;20196;-80
2023/01/27 02:36:15;;;;;;;20.23;12.33;;;-0.90;99.90;;;;;;5034753;28;20337;-79
2023/01/27 02:38:49;;;;;;;20.05;12.60;;;-0.90;99.90;;;;;;5049561;28;20570;-77
2023/01/27 02:41:39;;;;;;;24.00;14.73;;;-0.90;99.90;;;;;;5052577;28;20283;-77
2023/01/27 02:44:06;;;;;;;28.38;14.93;;;-0.90;99.90;;;;;;5050930;28;20287;-78
2023/01/27 02:46:32;;;;;;;26.33;13.25;;;-0.90;99.90;;;;;;5050712;28;20547;-77
2023/01/27 02:48:57;;;;;;;24.07;13.20;;;-0.90;99.90;;;;;;5050124;28;20305;-77
2023/01/27 02:51:23;;;;;;;27.20;13.50;;;-0.90;99.90;;;;;;5033151;28;20457;-78
2023/01/27 02:53:49;;;;;;;22.40;14.00;;;-0.90;99.90;;;;;;5049690;28;20191;-77
2023/01/27 02:56:14;;;;;;;21.77;13.77;;;-0.90;99.90;;;;;;5050840;28;20213;-77
2023/01/27 02:58:40;;;;;;;24.50;13.63;;;-0.80;99.90;;;;;;5051008;28;20177;-78
2023/01/27 03:01:06;;;;;;;27.47;15.40;;;-0.90;99.90;;;;;;5051108;28;20246;-77
2023/01/27 03:03:32;;;;;;;24.77;13.93;;;-0.90;99.90;;;;;;5049915;28;20257;-77
2023/01/27 03:05:57;;;;;;;23.53;13.37;;;-0.90;99.90;;;;;;5050272;28;20668;-78
2023/01/27 03:08:23;;;;;;;25.07;13.97;;;-0.90;99.90;;;;;;5049697;28;20187;-77
2023/01/27 03:10:50;;;;;;;26.10;14.43;;;-0.90;99.90;;;;;;5049509;28;20180;-77
2023/01/27 03:13:19;;;;;;;26.63;15.50;;;-0.90;99.90;;;;;;5032738;28;20195;-76
2023/01/27 03:18:29;;;;;;;25.73;14.90;;;-0.90;99.90;;;;;;5049457;28;20171;-77
2023/01/27 03:21:01;;;;;;;32.13;14.33;;;-1.00;99.90;;;;;;5050003;28;20184;-77
2023/01/27 03:23:27;;;;;;;26.73;14.93;;;-1.00;99.90;;;;;;5049334;28;20283;-77
2023/01/27 03:25:52;;;;;;;26.20;15.90;;;-1.00;99.90;;;;;;5049534;28;20315;-79
2023/01/27 03:28:18;;;;;;;29.40;14.90;;;-1.00;99.90;;;;;;5048073;28;20192;-77
2023/01/27 03:30:43;;;;;;;29.60;14.67;;;-0.90;99.90;;;;;;5049393;28;20187;-77
2023/01/27 03:33:09;;;;;;;28.83;15.33;;;-0.90;99.90;;;;;;5048652;28;20212;-77
2023/01/27 03:35:47;;;;;;;37.40;16.80;;;-0.90;99.90;;;;;;5048543;28;20208;-77
2023/01/27 03:46:26;;;;;;;31.65;15.00;;;-0.90;99.90;;;;;;5049544;28;20280;-77
2023/01/27 03:48:54;;;;;;;31.07;16.07;;;-1.00;99.90;;;;;;5049376;28;20231;-76
2023/01/27 03:51:23;;;;;;;25.45;14.65;;;-1.00;99.90;;;;;;5050388;28;20199;-78
2023/01/27 03:53:49;;;;;;;24.00;15.30;;;-1.00;99.90;;;;;;5032534;28;20280;-77
2023/01/27 03:56:15;;;;;;;25.67;16.20;;;-1.00;99.90;;;;;;5048714;28;20349;-77
2023/01/27 03:58:41;;;;;;;35.00;16.55;;;-1.00;99.90;;;;;;5050107;28;20465;-77
2023/01/27 04:01:16;;;;;;;30.03;16.40;;;-0.90;99.90;;;;;;5048851;28;20789;-77
2023/01/27 04:09:38;;;;;;;31.88;17.10;;;-1.00;99.90;;;;;;5051571;28;20187;-78
2023/01/27 04:12:05;;;;;;;32.58;16.55;;;-1.00;99.90;;;;;;5048936;28;20215;-77
2023/01/27 04:14:36;;;;;;;31.38;16.83;;;-1.00;99.90;;;;;;5050068;28;20211;-76
2023/01/27 04:17:11;;;;;;;34.10;16.95;;;-1.00;99.90;;;;;;5048745;28;20176;-77
2023/01/27 04:19:37;;;;;;;25.83;15.05;;;-1.00;99.90;;;;;;5048678;28;20217;-76
2023/01/27 04:22:04;;;;;;;31.95;15.77;;;-1.00;99.90;;;;;;5047622;28;20230;-77
2023/01/27 04:24:29;;;;;;;35.95;16.60;;;-1.00;99.90;;;;;;5047688;28;20211;-78
2023/01/27 04:26:56;;;;;;;27.17;15.80;;;-1.00;99.90;;;;;;5049180;28;20227;-78
2023/01/27 04:29:24;;;;;;;31.13;15.02;;;-1.00;99.90;;;;;;5049308;28;20176;-78
2023/01/27 04:31:50;;;;;;;35.08;15.90;;;-1.10;99.90;;;;;;5049070;28;20275;-78
2023/01/27 04:34:16;;;;;;;29.73;15.90;;;-1.10;99.90;;;;;;5031182;28;20299;-78
2023/01/27 04:36:42;;;;;;;27.77;16.00;;;-1.00;99.90;;;;;;5047685;28;20470;-77
2023/01/27 04:39:09;;;;;;;27.77;15.03;;;-1.00;99.90;;;;;;5047290;28;20709;-77
2023/01/27 04:41:35;;;;;;;31.05;15.27;;;-1.00;99.90;;;;;;5033669;28;21195;-78
2023/01/27 04:44:03;;;;;;;31.30;17.10;;;-1.00;99.90;;;;;;5052725;28;20285;-78
2023/01/27 04:46:28;;;;;;;29.23;14.90;;;-1.00;99.90;;;;;;5034369;28;20695;-79
2023/01/27 04:48:54;;;;;;;31.80;16.17;;;-1.00;99.90;;;;;;5034560;28;20195;-77
2023/01/27 04:51:20;;;;;;;26.20;14.57;;;-1.00;99.90;;;;;;5034121;28;20234;-78
2023/01/27 04:53:45;;;;;;;27.27;14.27;;;-1.00;99.90;;;;;;5052588;28;20550;-77
2023/01/27 04:56:22;;;;;;;35.87;18.27;;;-1.00;99.90;;;;;;5050918;28;20772;-76
2023/01/27 04:58:47;;;;;;;34.15;16.00;;;-1.10;99.90;;;;;;5052490;28;20753;-77
2023/01/27 05:01:13;;;;;;;36.57;18.07;;;-1.10;99.90;;;;;;5051940;28;20215;-76
2023/01/27 05:03:39;;;;;;;42.00;18.40;;;-1.20;99.90;;;;;;5050357;28;20275;-77
2023/01/27 05:06:04;;;;;;;33.67;17.90;;;-1.10;99.90;;;;;;5051943;28;20172;-78
2023/01/27 05:08:30;;;;;;;37.03;16.87;;;-1.10;99.90;;;;;;5051836;28;20238;-78
2023/01/27 05:10:56;;;;;;;31.30;16.73;;;-1.20;99.90;;;;;;5053303;28;20589;-78
2023/01/27 05:13:21;;;;;;;32.63;15.27;;;-1.20;99.90;;;;;;5056112;28;20222;-78
2023/01/27 05:15:47;;;;;;;27.77;15.60;;;-1.20;99.90;;;;;;5051774;28;20567;-76
2023/01/27 05:18:13;;;;;;;42.40;17.60;;;-1.20;99.90;;;;;;5051721;28;20215;-78
2023/01/27 05:20:38;;;;;;;36.78;14.82;;;-1.20;99.90;;;;;;5034413;28;20196;-77
2023/01/27 05:25:48;;;;;;;29.27;15.90;;;-1.10;99.90;;;;;;5050478;28;20238;-76
2023/01/27 05:28:14;;;;;;;37.13;18.63;;;-1.00;99.90;;;;;;5051319;28;20650;-77
2023/01/27 05:30:39;;;;;;;39.57;17.57;;;-1.10;99.90;;;;;;5049763;28;20242;-77
2023/01/27 05:33:06;;;;;;;33.70;17.30;;;-1.10;99.90;;;;;;5050414;28;20644;-78
2023/01/27 05:35:33;;;;;;;32.00;17.23;;;-1.00;99.90;;;;;;5034130;28;20716;-77
2023/01/27 05:37:59;;;;;;;37.92;18.10;;;-1.00;99.90;;;;;;5052145;28;20252;-77
2023/01/27 05:40:25;;;;;;;36.90;17.43;;;-1.00;99.90;;;;;;5051433;28;20255;-77
2023/01/27 05:42:51;;;;;;;34.53;16.70;;;-1.10;99.90;;;;;;5049808;28;20480;-78
2023/01/27 05:45:17;;;;;;;44.90;19.20;;;-1.00;99.90;;;;;;5050856;28;20419;-75
2023/01/27 05:47:42;;;;;;;36.73;18.33;;;-1.10;99.90;;;;;;5050339;28;20901;-75
2023/01/27 05:50:08;;;;;;;35.73;16.73;;;-1.00;99.90;;;;;;5050433;28;20192;-74
2023/01/27 05:52:34;;;;;;;31.42;16.55;;;-1.10;99.90;;;;;;5049957;28;20199;-75
2023/01/27 05:54:59;;;;;;;30.70;16.70;;;-1.00;99.90;;;;;;5048962;28;20204;-76
2023/01/27 05:57:25;;;;;;;31.33;16.67;;;-1.00;99.90;;;;;;5049440;28;20184;-77
2023/01/27 05:59:51;;;;;;;35.90;17.40;;;-1.00;99.90;;;;;;5033573;28;20296;-78
2023/01/27 06:02:16;;;;;;;30.67;16.47;;;-1.00;99.90;;;;;;5033544;28;20212;-76
2023/01/27 06:04:42;;;;;;;32.90;16.60;;;-1.00;99.90;;;;;;5050302;28;20744;-77
2023/01/27 06:07:07;;;;;;;28.40;14.87;;;-1.00;99.90;;;;;;5050141;28;20585;-77
2023/01/27 06:09:33;;;;;;;25.90;13.90;;;-1.00;99.90;;;;;;5050109;28;20616;-77
2023/01/27 06:11:58;;;;;;;31.37;15.80;;;-1.00;99.90;;;;;;5048343;28;20204;-77
2023/01/27 06:14:24;;;;;;;36.70;17.13;;;-1.00;99.90;;;;;;5032242;28;20184;-76
2023/01/27 06:16:52;;;;;;;34.00;16.50;;;-1.00;99.90;;;;;;5049902;28;20207;-77
2023/01/27 06:19:18;;;;;;;32.40;17.10;;;-1.00;99.90;;;;;;5050000;28;20211;-77
2023/01/27 06:21:43;;;;;;;30.10;16.07;;;-1.00;99.90;;;;;;5048272;28;20231;-78
2023/01/27 06:24:09;;;;;;;31.30;16.50;;;-1.00;99.90;;;;;;5049932;28;20184;-77
2023/01/27 06:26:35;;;;;;;28.90;16.70;;;-0.90;99.90;;;;;;5049782;28;20274;-76
2023/01/27 06:29:01;;;;;;;28.73;15.20;;;-1.00;99.90;;;;;;5048766;28;20222;-77
2023/01/27 06:31:27;;;;;;;26.23;14.73;;;-0.90;99.90;;;;;;5048781;28;20759;-78
2023/01/27 06:33:52;;;;;;;31.33;14.88;;;-1.00;99.90;;;;;;5049748;28;20480;-75
2023/01/27 06:36:20;;;;;;;33.87;16.83;;;-1.00;99.90;;;;;;5048673;28;20211;-77
2023/01/27 06:38:46;;;;;;;27.23;13.82;;;-1.00;99.90;;;;;;5031753;28;20601;-77
2023/01/27 06:41:12;;;;;;;29.65;15.27;;;-1.00;99.90;;;;;;5049206;28;20202;-76
2023/01/27 06:43:37;;;;;;;34.23;15.07;;;-1.00;99.90;;;;;;5047367;28;20179;-76
2023/01/27 06:46:03;;;;;;;36.33;15.90;;;-1.00;99.90;;;;;;5048226;28;20668;-76
2023/01/27 06:48:29;;;;;;;27.40;16.00;;;-1.00;99.90;;;;;;5048075;28;20272;-76
2023/01/27 06:50:55;;;;;;;34.23;16.03;;;-1.00;99.90;;;;;;5030649;28;20803;-77
2023/01/27 06:53:22;;;;;;;28.17;15.60;;;-0.90;99.90;;;;;;5049000;28;20176;-76
2023/01/27 06:55:53;;;;;;;36.47;16.92;;;-0.90;99.90;;;;;;5047155;28;20215;-76
2023/01/27 06:58:19;;;;;;;27.10;15.75;;;-1.00;99.90;;;;;;5048804;28;20170;-75
2023/01/27 07:00:44;;;;;;;33.93;15.90;;;-1.00;99.90;;;;;;5030711;28;20203;-76
2023/01/27 07:03:11;;;;;;;34.47;16.73;;;-1.00;99.90;;;;;;5047919;28;20249;-76
2023/01/27 07:05:38;;;;;;;34.40;17.15;;;-1.00;99.90;;;;;;5048475;28;20198;-76
2023/01/27 07:08:04;;;;;;;29.00;14.88;;;-1.00;99.90;;;;;;5047137;28;20544;-75
2023/01/27 07:10:29;;;;;;;24.87;12.67;;;-0.90;99.90;;;;;;5048193;28;20188;-76
2023/01/27 07:13:06;;;;;;;25.70;13.53;;;-1.00;99.90;;;;;;5048389;28;20196;-77
2023/01/27 07:15:32;;;;;;;27.45;13.95;;;-1.00;99.90;;;;;;5048532;28;20663;-76
2023/01/27 07:17:59;;;;;;;28.07;13.70;;;-1.00;99.90;;;;;;5048971;28;20238;-76
2023/01/27 07:20:27;;;;;;;27.10;13.82;;;-0.90;99.90;;;;;;5050070;28;20875;-77
2023/01/27 07:22:57;;;;;;;36.83;17.90;;;-1.00;99.90;;;;;;5031951;28;20249;-77
2023/01/27 07:25:22;;;;;;;30.73;15.07;;;-0.90;99.90;;;;;;5050162;28;20190;-78
2023/01/27 07:27:48;;;;;;;28.40;15.50;;;-0.90;99.90;;;;;;5050295;28;20184;-78
2023/01/27 07:30:14;;;;;;;30.23;15.23;;;-0.90;99.90;;;;;;5048203;28;20253;-77
2023/01/27 07:32:39;;;;;;;31.77;14.27;;;-0.90;99.90;;;;;;5049397;28;20237;-76
2023/01/27 07:35:05;;;;;;;30.43;15.70;;;-0.90;99.90;;;;;;5047992;28;20462;-76
2023/01/27 07:37:31;;;;;;;29.27;14.15;;;-0.80;99.90;;;;;;5048382;28;20176;-77
2023/01/27 07:39:57;;;;;;;30.27;16.80;;;-0.80;99.90;;;;;;5049780;28;20203;-78
2023/01/27 07:42:22;;;;;;;32.57;15.37;;;-0.80;99.90;;;;;;5049806;28;20197;-77
2023/01/27 07:44:48;;;;;;;35.50;16.40;;;-0.80;99.90;;;;;;5049591;28;20259;-77
2023/01/27 07:47:13;;;;;;;37.53;16.97;;;-0.80;99.90;;;;;;5031416;28;20654;-75
2023/01/27 07:49:39;;;;;;;34.20;17.97;;;-0.80;99.90;;;;;;5047941;28;20180;-79
2023/01/27 07:52:05;;;;;;;30.70;14.87;;;-0.80;99.90;;;;;;5048564;28;20246;-77
2023/01/27 07:54:30;;;;;;;32.63;15.70;;;-0.80;99.90;;;;;;5046578;28;20230;-75
2023/01/27 07:56:59;;;;;;;31.43;14.70;;;-0.80;99.90;;;;;;5048657;28;20676;-77
2023/01/27 07:59:25;;;;;;;29.48;14.63;;;-0.90;99.90;;;;;;5048162;28;20191;-79
2023/01/27 08:01:50;;;;;;;28.20;15.63;;;-0.90;99.90;;;;;;5046891;28;20251;-76
2023/01/27 08:04:16;;;;;;;27.23;14.10;;;-0.90;99.90;;;;;;5046472;28;20180;-76
2023/01/27 08:06:41;;;;;;;31.70;14.63;;;-0.80;99.90;;;;;;5046881;28;20500;-76
2023/01/27 08:09:07;;;;;;;33.43;16.43;;;-0.90;99.90;;;;;;5046925;28;20190;-77
2023/01/27 08:11:34;;;;;;;29.63;15.80;;;-0.80;99.90;;;;;;5030138;28;20204;-76
2023/01/27 08:14:02;;;;;;;27.92;14.50;;;-0.80;99.90;;;;;;5050416;28;20176;-79
2023/01/27 08:16:28;;;;;;;22.63;12.77;;;-0.90;99.90;;;;;;5051736;28;20280;-77
2023/01/27 08:18:54;;;;;;;20.67;12.00;;;-0.80;99.90;;;;;;5053819;28;20179;-76
2023/01/27 08:21:20;;;;;;;23.27;13.80;;;-0.80;99.90;;;;;;5052659;28;21290;-75
2023/01/27 08:23:45;;;;;;;25.20;11.67;;;-0.80;99.90;;;;;;5051426;28;20595;-74
2023/01/27 08:26:11;;;;;;;22.13;12.20;;;-0.80;99.90;;;;;;5051951;28;20910;-78
2023/01/27 08:28:38;;;;;;;19.50;11.60;;;-0.80;99.90;;;;;;5052481;28;20183;-76
2023/01/27 08:31:09;;;;;;;17.08;10.48;;;-0.80;99.90;;;;;;5052339;28;20494;-79
2023/01/27 08:33:36;;;;;;;22.73;12.50;;;-0.80;99.90;;;;;;5053108;28;20202;-77
2023/01/27 08:36:08;;;;;;;17.23;10.27;;;-0.80;99.90;;;;;;5052674;28;20200;-75
2023/01/27 08:38:33;;;;;;;20.23;10.57;;;-0.80;99.90;;;;;;5049858;28;20188;-75
2023/01/27 08:41:06;;;;;;;19.50;9.83;;;-0.80;99.90;;;;;;5051281;28;20566;-74
2023/01/27 08:43:33;;;;;;;17.75;9.15;;;-0.80;99.90;;;;;;5051465;28;20958;-74
2023/01/27 08:45:59;;;;;;;17.88;9.93;;;-0.80;99.90;;;;;;5051342;28;20290;-74
2023/01/27 08:48:29;;;;;;;18.25;9.57;;;-0.80;99.90;;;;;;5049842;28;20192;-74
2023/01/27 08:50:55;;;;;;;20.88;10.98;;;-0.90;99.90;;;;;;5051180;28;20191;-74
2023/01/27 08:53:22;;;;;;;19.50;11.03;;;-0.90;99.90;;;;;;5051413;28;20176;-74
2023/01/27 08:55:48;;;;;;;17.02;10.02;;;-1.00;99.90;;;;;;5051210;28;20461;-74
2023/01/27 08:58:13;;;;;;;22.00;9.30;;;-0.90;99.90;;;;;;5051323;28;20187;-75
2023/01/27 09:00:39;;;;;;;17.87;10.57;;;-1.00;99.90;;;;;;5050021;28;20193;-75
2023/01/27 09:03:04;;;;;;;15.97;9.83;;;-0.90;99.90;;;;;;5049898;28;20261;-74
2023/01/27 09:05:30;;;;;;;21.03;11.30;;;-0.90;99.90;;;;;;5050673;28;20213;-74
2023/01/27 09:07:56;;;;;;;16.17;9.47;;;-0.80;99.90;;;;;;5050894;28;20215;-74
2023/01/27 09:10:21;;;;;;;18.30;10.90;;;-0.80;99.90;;;;;;5050902;28;20205;-75
2023/01/27 09:12:47;;;;;;;20.40;11.80;;;-0.80;99.90;;;;;;5049996;28;20208;-75
2023/01/27 09:15:13;;;;;;;18.10;10.70;;;-0.80;99.90;;;;;;5049925;28;20220;-74
2023/01/27 09:17:39;;;;;;;16.98;9.95;;;-0.80;99.90;;;;;;5050059;28;20180;-75
2023/01/27 09:20:05;;;;;;;17.30;9.70;;;-0.70;99.90;;;;;;5050257;28;20278;-77
2023/01/27 09:22:31;;;;;;;18.58;10.90;;;-0.80;99.90;;;;;;5051645;28;20231;-76
2023/01/27 09:24:57;;;;;;;17.50;11.13;;;-0.70;99.90;;;;;;5050990;28;20184;-77
2023/01/27 09:27:22;;;;;;;20.53;13.13;;;-0.80;99.90;;;;;;5049707;28;20553;-78
2023/01/27 09:29:48;;;;;;;24.33;13.13;;;-0.70;99.90;;;;;;5033839;28;20180;-78
2023/01/27 09:32:13;;;;;;;19.90;11.07;;;-0.70;99.90;;;;;;5050518;28;20246;-77
2023/01/27 09:34:39;;;;;;;15.10;9.60;;;-0.70;99.90;;;;;;5033486;28;20675;-77
2023/01/27 09:37:08;;;;;;;19.40;11.23;;;-0.70;99.90;;;;;;5049972;28;20204;-79
2023/01/27 09:39:39;;;;;;;29.27;15.45;;;-0.70;99.90;;;;;;5054102;28;20180;-78
2023/01/27 09:42:40;;;;;;;25.20;14.57;;;-0.70;99.90;;;;;;5054064;28;20192;-77
2023/01/27 09:45:34;;;;;;;19.08;10.18;;;-0.70;99.90;;;;;;5050905;28;20266;-78
2023/01/27 09:48:36;;;;;;;19.83;10.52;;;-0.70;99.90;;;;;;5053367;28;20187;-76
2023/01/27 09:51:27;;;;;;;19.48;10.93;;;-0.70;99.90;;;;;;5053005;28;20179;-78
2023/01/27 09:54:24;;;;;;;18.88;11.50;;;-0.60;99.90;;;;;;5052159;28;20176;-78
2023/01/27 09:56:49;;;;;;;20.25;11.07;;;-0.60;99.90;;;;;;5051689;28;20257;-76
2023/01/27 09:59:34;;;;;;;16.57;10.70;;;-0.70;99.90;;;;;;5052279;28;20172;-79
2023/01/27 10:02:08;;;;;;;20.20;11.27;;;-0.70;99.90;;;;;;5053167;28;20195;-78
2023/01/27 10:04:57;;;;;;;21.45;10.63;;;-0.70;99.90;;;;;;5051389;28;20172;-76
2023/01/27 10:07:53;;;;;;;18.67;10.45;;;-0.70;99.90;;;;;;5051528;28;20226;-77
2023/01/27 10:10:56;;;;;;;24.73;12.20;;;-0.70;99.90;;;;;;5050583;28;20229;-77
2023/01/27 10:13:30;;;;;;;21.80;12.38;;;-0.70;99.90;;;;;;5049705;28;20180;-77
2023/01/27 10:16:03;;;;;;;25.05;12.95;;;-0.70;99.90;;;;;;5050735;28;20287;-76
2023/01/27 10:19:13;;;;;;;26.45;14.18;;;-0.70;99.90;;;;;;5049133;28;20180;-77
2023/01/27 10:21:50;;;;;;;25.80;13.35;;;-0.70;99.90;;;;;;4988470;28;20742;-77
2023/01/27 10:24:37;;;;;;;31.33;14.57;;;-0.70;99.90;;;;;;4988701;28;20201;-77
2023/01/27 10:27:17;;;;;;;25.77;13.43;;;-0.70;99.90;;;;;;5034878;28;20275;-77
2023/01/27 10:29:57;;;;;;;23.77;12.25;;;-0.70;99.90;;;;;;5051947;28;20231;-78
2023/01/27 10:32:28;;;;;;;25.25;14.73;;;-0.70;99.90;;;;;;5052289;28;20570;-77
2023/01/27 10:35:17;;;;;;;41.83;21.45;;;-0.70;99.90;;;;;;5052590;28;20230;-78
2023/01/27 10:37:56;;;;;;;44.47;19.48;;;-0.60;99.90;;;;;;5051411;28;20268;-78
2023/01/27 10:40:32;;;;;;;40.53;18.58;;;-0.60;99.90;;;;;;5051336;28;20558;-78
2023/01/27 10:43:21;;;;;;;67.95;27.30;;;-0.50;99.90;;;;;;5051193;28;20345;-79
2023/01/27 10:46:08;;;;;;;31.90;16.13;;;-0.50;99.90;;;;;;5049499;28;20192;-76
2023/01/27 10:49:03;;;;;;;22.15;12.60;;;-0.60;99.90;;;;;;5050842;28;20211;-77
2023/01/27 10:51:32;;;;;;;27.98;13.25;;;-0.50;99.90;;;;;;5048993;28;20267;-77
2023/01/27 10:54:20;;;;;;;23.80;13.75;;;-0.50;99.90;;;;;;5050498;28;20271;-76
2023/01/27 10:56:49;;;;;;;29.90;14.10;;;-0.50;99.90;;;;;;5049810;28;20243;-78
2023/01/27 10:59:53;;;;;;;25.58;13.02;;;-0.50;99.90;;;;;;5050311;28;20183;-78
2023/01/27 11:02:28;;;;;;;26.85;13.23;;;-0.50;99.90;;;;;;5049630;28;20208;-77
2023/01/27 11:04:58;;;;;;;23.85;11.48;;;-0.50;99.90;;;;;;5050050;28;20629;-77
2023/01/27 11:07:25;;;;;;;24.20;12.52;;;-0.50;99.90;;;;;;5051155;28;20255;-77
2023/01/27 11:10:12;;;;;;;27.75;12.82;;;-0.50;99.90;;;;;;5050227;28;20184;-77
2023/01/27 11:12:43;;;;;;;27.27;13.00;;;-0.50;99.90;;;;;;5050340;28;20676;-77
2023/01/27 11:15:32;;;;;;;23.20;13.20;;;-0.50;99.90;;;;;;5034481;28;20896;-79
2023/01/27 11:18:10;;;;;;;27.88;13.13;;;-0.40;99.90;;;;;;5049807;28;20182;-76
2023/01/27 11:20:47;;;;;;;28.45;13.85;;;-0.50;99.90;;;;;;5048780;28;20218;-78
2023/01/27 11:23:22;;;;;;;31.25;15.80;;;-0.50;99.90;;;;;;5050686;28;20168;-77
2023/01/27 11:26:15;;;;;;;31.27;14.27;;;-0.40;99.90;;;;;;5050402;28;20566;-77
2023/01/27 11:28:51;;;;;;;25.58;12.70;;;-0.40;99.90;;;;;;5050097;28;20256;-77
2023/01/27 11:31:38;;;;;;;28.58;14.20;;;-0.30;99.90;;;;;;5050182;28;20279;-75
2023/01/27 11:34:14;;;;;;;21.48;11.88;;;-0.20;99.90;;;;;;5050123;28;20241;-75
2023/01/27 11:36:40;;;;;;;22.73;11.82;;;-0.20;99.90;;;;;;5049676;28;20264;-76
2023/01/27 11:39:09;;;;;;;25.80;12.07;;;-0.20;99.90;;;;;;5048072;28;20185;-76
2023/01/27 11:41:51;;;;;;;23.17;13.70;;;-0.10;99.90;;;;;;5047755;28;20240;-77
2023/01/27 11:44:30;;;;;;;33.20;15.32;;;-0.10;99.90;;;;;;5047606;28;20187;-75
2023/01/27 11:46:56;;;;;;;26.02;12.27;;;0.00;99.90;;;;;;5047670;28;20321;-77
2023/01/27 11:49:33;;;;;;;20.88;11.85;;;0.00;99.90;;;;;;5049893;28;20211;-76
2023/01/27 11:52:04;;;;;;;23.02;12.65;;;-0.10;99.90;;;;;;5054195;28;20235;-77
2023/01/27 11:54:35;;;;;;;18.88;10.35;;;-0.10;99.90;;;;;;5053601;28;20187;-78
2023/01/27 11:57:01;;;;;;;32.10;15.50;;;0.00;99.90;;;;;;5054155;28;20211;-76
2023/01/27 11:59:37;;;;;;;21.10;12.00;;;0.00;99.90;;;;;;5037990;28;20205;-77
2023/01/27 12:02:25;;;;;;;25.40;14.02;;;0.00;99.90;;;;;;5054319;28;20217;-76
2023/01/27 12:05:15;;;;;;;25.73;13.70;;;0.00;99.90;;;;;;5055950;28;20271;-77
2023/01/27 12:07:59;;;;;;;19.85;11.80;;;0.00;99.90;;;;;;5054168;28;20273;-77
2023/01/27 12:10:31;;;;;;;22.25;12.02;;;0.00;99.90;;;;;;5054066;28;20183;-76
2023/01/27 12:13:07;;;;;;;22.20;12.20;;;0.00;99.90;;;;;;5059153;28;20223;-77
2023/01/27 12:15:35;;;;;;;20.10;12.45;;;-0.10;99.90;;;;;;5058063;28;20211;-77
2023/01/27 12:18:14;;;;;;;22.70;12.23;;;0.00;99.90;;;;;;5057466;28;20205;-78
2023/01/27 12:20:45;;;;;;;20.65;11.20;;;0.00;99.90;;;;;;5056792;28;20237;-76
2023/01/27 12:23:23;;;;;;;28.98;15.10;;;0.00;99.90;;;;;;5040267;28;20204;-78
2023/01/27 12:25:56;;;;;;;24.10;12.90;;;0.00;99.90;;;;;;5039594;28;20668;-77
2023/01/27 12:28:50;;;;;;;22.58;12.68;;;0.00;99.90;;;;;;5057591;28;20200;-77
2023/01/27 12:31:28;;;;;;;25.98;13.60;;;0.10;99.90;;;;;;5058124;28;20238;-77
2023/01/27 12:34:07;;;;;;;20.98;12.52;;;0.10;99.90;;;;;;5057783;28;20563;-78
2023/01/27 12:36:41;;;;;;;22.38;11.55;;;0.10;99.90;;;;;;5056447;28;20222;-75
2023/01/27 12:39:28;;;;;;;19.98;11.35;;;0.10;99.90;;;;;;5060564;28;20672;-76
2023/01/27 12:41:54;;;;;;;19.02;11.30;;;0.20;99.90;;;;;;5055136;28;20699;-76
2023/01/27 12:44:24;;;;;;;19.63;11.00;;;0.20;99.90;;;;;;5054507;28;20616;-77
2023/01/27 12:47:14;;;;;;;22.90;11.63;;;0.20;99.90;;;;;;5055045;28;20261;-76
2023/01/27 12:49:43;;;;;;;21.27;12.10;;;0.30;99.90;;;;;;5054842;28;20192;-77
2023/01/27 12:52:18;;;;;;;22.77;11.55;;;0.10;99.90;;;;;;5054872;28;20203;-77
2023/01/27 12:54:43;;;;;;;19.95;11.10;;;0.20;99.90;;;;;;5054676;28;20248;-78
2023/01/27 12:57:16;;;;;;;20.40;10.90;;;0.20;99.90;;;;;;5054244;28;20207;-77
2023/01/27 12:59:56;;;;;;;18.75;10.65;;;0.20;99.90;;;;;;5052763;28;20280;-77
2023/01/27 13:02:24;;;;;;;22.75;11.07;;;0.20;99.90;;;;;;5049423;28;20294;-77
2023/01/27 13:04:56;;;;;;;18.35;10.45;;;0.20;99.90;;;;;;5049189;28;20680;-78
2023/01/27 13:07:37;;;;;;;17.33;10.23;;;0.20;99.90;;;;;;5049848;28;20269;-76
2023/01/27 13:10:24;;;;;;;18.48;10.68;;;0.30;99.90;;;;;;5051199;28;20188;-78
2023/01/27 13:12:56;;;;;;;19.42;10.02;;;0.30;99.90;;;;;;5050690;28;20312;-77